createdAt,value
2017-09-23T00:01:59.123Z,8.93
2017-09-23T00:04:26.626Z,10.57
2017-09-23T00:06:54.180Z,9.40
2017-09-23T00:09:21.673Z,9.50
2017-09-23T00:11:50.511Z,8.10
2017-09-23T00:14:18.071Z,8.93
2017-09-23T00:16:46.403Z,9.70
2017-09-23T00:19:14.615Z,8.20
2017-09-23T00:21:42.511Z,13.00
2017-09-23T00:24:10.035Z,9.57
2017-09-23T00:26:39.287Z,8.53
2017-09-23T00:29:06.870Z,9.20
2017-09-23T00:31:34.399Z,10.68
2017-09-23T00:34:02.340Z,8.35
2017-09-23T00:36:30.647Z,9.43
2017-09-23T00:38:58.388Z,8.20
2017-09-23T00:41:25.919Z,9.90
2017-09-23T00:43:54.285Z,8.87
2017-09-23T00:46:21.873Z,8.68
2017-09-23T00:48:49.380Z,9.87
2017-09-23T00:51:17.524Z,9.40
2017-09-23T00:53:45.140Z,11.63
2017-09-23T00:56:13.413Z,10.90
2017-09-23T00:58:41.382Z,10.50
2017-09-23T01:01:09.250Z,11.12
2017-09-23T01:03:36.746Z,9.87
2017-09-23T01:06:04.287Z,11.23
2017-09-23T01:08:31.843Z,11.05
2017-09-23T01:11:03.022Z,9.70
2017-09-23T01:13:31.455Z,9.60
2017-09-23T01:15:58.990Z,9.10
2017-09-23T01:18:26.491Z,9.73
2017-09-23T01:20:54.358Z,9.02
2017-09-23T01:23:21.946Z,9.02
2017-09-23T01:25:50.399Z,8.43
2017-09-23T01:28:17.911Z,7.80
2017-09-23T01:30:45.451Z,7.43
2017-09-23T01:33:13.051Z,7.60
2017-09-23T01:35:40.647Z,8.77
2017-09-23T01:38:08.157Z,9.65
2017-09-23T01:40:35.671Z,9.87
2017-09-23T01:43:10.760Z,9.18
2017-09-23T01:45:38.263Z,10.00
2017-09-23T01:48:05.801Z,9.87
2017-09-23T01:50:33.685Z,11.07
2017-09-23T01:53:01.231Z,11.43
2017-09-23T01:55:29.563Z,9.00
2017-09-23T01:57:57.597Z,10.15
2017-09-23T02:00:25.194Z,11.10
2017-09-23T02:02:53.123Z,10.93
2017-09-23T02:05:20.623Z,9.27
2017-09-23T02:07:48.163Z,9.00
2017-09-23T02:10:15.673Z,8.60
2017-09-23T02:12:44.250Z,8.10
2017-09-23T02:15:17.178Z,9.97
2017-09-23T02:17:44.688Z,9.43
2017-09-23T02:20:12.231Z,10.60
2017-09-23T02:22:39.799Z,10.20
2017-09-23T02:25:08.274Z,10.10
2017-09-23T02:27:40.319Z,8.55
2017-09-23T02:30:07.810Z,8.15
2017-09-23T02:32:35.304Z,7.07
2017-09-23T02:35:03.592Z,9.27
2017-09-23T02:37:31.124Z,8.37
2017-09-23T02:39:59.429Z,7.00
2017-09-23T02:42:31.182Z,7.60
2017-09-23T02:44:58.670Z,7.80
2017-09-23T02:47:26.240Z,9.30
2017-09-23T02:49:53.792Z,9.00
2017-09-23T02:52:21.288Z,9.00
2017-09-23T02:54:48.903Z,8.25
2017-09-23T02:57:16.799Z,9.27
2017-09-23T02:59:44.316Z,8.90
2017-09-23T03:02:12.191Z,9.40
2017-09-23T03:04:39.736Z,9.13
2017-09-23T03:07:07.240Z,8.60
2017-09-23T03:09:34.755Z,8.57
2017-09-23T03:12:02.482Z,7.80
2017-09-23T03:14:29.973Z,8.13
2017-09-23T03:16:58.410Z,6.20
2017-09-23T03:19:26.095Z,9.53
2017-09-23T03:21:53.631Z,8.60
2017-09-23T03:24:21.934Z,9.10
2017-09-23T03:26:49.487Z,9.52
2017-09-23T03:29:17.578Z,8.93
2017-09-23T03:31:45.543Z,8.80
2017-09-23T03:34:13.081Z,9.63
2017-09-23T03:36:40.661Z,9.93
2017-09-23T03:39:08.176Z,10.30
2017-09-23T03:41:35.711Z,9.45
2017-09-23T03:44:03.211Z,8.63
2017-09-23T03:46:34.906Z,8.95
2017-09-23T03:49:02.423Z,8.33
2017-09-23T03:51:30.732Z,8.37
2017-09-23T03:53:59.191Z,9.37
2017-09-23T03:56:27.463Z,9.20
2017-09-23T03:58:59.248Z,9.90
2017-09-23T04:01:27.527Z,9.27
2017-09-23T04:03:55.062Z,9.68
2017-09-23T04:06:22.555Z,9.93
2017-09-23T04:08:50.100Z,8.50
2017-09-23T04:11:18.732Z,9.54
2017-09-23T04:13:46.276Z,9.05
2017-09-23T04:16:13.782Z,10.13
2017-09-23T04:18:41.302Z,10.33
2017-09-23T04:21:08.852Z,10.23
2017-09-23T04:23:36.356Z,10.82
2017-09-23T04:26:04.674Z,10.13
2017-09-23T04:28:33.343Z,10.00
2017-09-23T04:31:08.736Z,10.45
2017-09-23T04:33:36.311Z,10.80
2017-09-23T04:36:04.635Z,11.10
2017-09-23T04:38:32.187Z,9.77
2017-09-23T04:40:59.681Z,9.00
2017-09-23T04:43:28.575Z,9.88
2017-09-23T04:45:56.078Z,8.35
2017-09-23T04:48:23.695Z,10.42
2017-09-23T04:50:51.231Z,8.73
2017-09-23T04:53:18.736Z,9.97
2017-09-23T04:55:47.961Z,9.30
2017-09-23T04:58:15.673Z,9.75
2017-09-23T05:00:43.224Z,8.53
2017-09-23T05:03:11.003Z,8.70
2017-09-23T05:05:38.533Z,9.23
2017-09-23T05:08:06.796Z,8.90
2017-09-23T05:10:34.343Z,9.00
2017-09-23T05:13:01.903Z,10.02
2017-09-23T05:15:36.878Z,9.93
2017-09-23T05:18:04.424Z,8.73
2017-09-23T05:20:31.932Z,9.47
2017-09-23T05:22:59.480Z,10.17
2017-09-23T05:25:27.258Z,9.70
2017-09-23T05:27:54.801Z,8.77
2017-09-23T05:30:30.788Z,8.90
2017-09-23T05:32:58.291Z,9.93
2017-09-23T05:35:25.863Z,8.35
2017-09-23T05:37:53.363Z,8.40
2017-09-23T05:40:20.866Z,8.02
2017-09-23T05:42:48.395Z,9.13
2017-09-23T05:45:15.943Z,10.82
2017-09-23T05:47:43.866Z,9.48
2017-09-23T05:50:11.359Z,8.80
2017-09-23T05:52:38.901Z,9.52
2017-09-23T05:55:07.184Z,10.60
2017-09-23T05:57:34.734Z,9.48
2017-09-23T06:00:03.043Z,10.45
2017-09-23T06:02:30.711Z,9.40
2017-09-23T06:04:58.257Z,9.15
2017-09-23T06:07:25.986Z,10.70
2017-09-23T06:09:53.786Z,9.25
2017-09-23T06:12:21.318Z,9.57
2017-09-23T06:14:49.595Z,10.15
2017-09-23T06:17:17.144Z,9.57
2017-09-23T06:19:45.465Z,9.57
2017-09-23T06:22:13.215Z,9.95
2017-09-23T06:24:40.737Z,9.60
2017-09-23T06:27:08.311Z,9.45
2017-09-23T06:29:35.818Z,9.80
2017-09-23T06:32:11.473Z,9.77
2017-09-23T06:34:39.023Z,10.82
2017-09-23T06:37:06.539Z,9.48
2017-09-23T06:39:34.438Z,8.43
2017-09-23T06:42:01.938Z,11.07
2017-09-23T06:44:29.597Z,11.55
2017-09-23T06:47:00.872Z,10.98
2017-09-23T06:49:28.371Z,9.80
2017-09-23T06:51:56.025Z,10.27
2017-09-23T06:54:23.567Z,10.45
2017-09-23T06:56:51.092Z,11.45
2017-09-23T06:59:18.647Z,10.80
2017-09-23T07:01:49.449Z,12.15
2017-09-23T07:04:16.976Z,11.02
2017-09-23T07:06:45.273Z,9.85
2017-09-23T07:09:12.824Z,9.70
2017-09-23T07:11:40.331Z,11.20
2017-09-23T07:14:08.665Z,11.60
2017-09-23T07:16:36.247Z,12.77
2017-09-23T07:19:03.850Z,11.20
2017-09-23T07:21:33.063Z,11.00
2017-09-23T07:24:00.624Z,10.53
2017-09-23T07:26:28.199Z,10.10
2017-09-23T07:28:55.761Z,11.10
2017-09-23T07:31:23.294Z,11.33
2017-09-23T07:33:51.768Z,12.57
2017-09-23T07:36:19.318Z,12.80
2017-09-23T07:38:46.890Z,11.50
2017-09-23T07:41:15.176Z,12.30
2017-09-23T07:43:42.686Z,11.43
2017-09-23T07:46:11.102Z,12.70
2017-09-23T07:48:39.412Z,12.90
2017-09-23T07:51:06.973Z,13.93
2017-09-23T07:53:34.879Z,13.32
2017-09-23T07:56:02.399Z,14.17
2017-09-23T07:58:30.232Z,14.50
2017-09-23T08:00:58.516Z,14.43
2017-09-23T08:03:30.520Z,13.07
2017-09-23T08:05:58.828Z,14.33
2017-09-23T08:08:26.451Z,13.27
2017-09-23T08:10:54.464Z,13.62
2017-09-23T08:13:21.984Z,15.90
2017-09-23T08:15:50.343Z,14.40
2017-09-23T08:18:17.855Z,14.57
2017-09-23T08:20:45.405Z,14.60
2017-09-23T08:23:13.958Z,16.85
2017-09-23T08:25:41.517Z,16.17
2017-09-23T08:28:09.047Z,15.63
2017-09-23T08:30:36.625Z,16.23
2017-09-23T08:33:04.145Z,16.20
2017-09-23T08:35:33.671Z,17.30
2017-09-23T08:38:01.245Z,17.40
2017-09-23T08:40:28.815Z,16.03
2017-09-23T08:42:56.341Z,15.25
2017-09-23T08:45:23.947Z,16.25
2017-09-23T08:47:52.490Z,16.70
2017-09-23T08:50:20.052Z,15.88
2017-09-23T08:52:47.579Z,17.10
2017-09-23T08:55:15.161Z,18.60
2017-09-23T08:57:42.957Z,18.50
2017-09-23T09:00:10.512Z,18.62
2017-09-23T09:02:38.077Z,18.20
2017-09-23T09:05:06.511Z,17.27
2017-09-23T09:07:34.570Z,21.92
2017-09-23T09:10:02.127Z,19.10
2017-09-23T09:12:29.758Z,21.07
2017-09-23T09:14:57.269Z,20.70
2017-09-23T09:17:25.679Z,18.55
2017-09-23T09:19:53.205Z,20.85
2017-09-23T09:22:21.484Z,18.63
2017-09-23T09:24:50.719Z,20.00
2017-09-23T09:27:18.296Z,20.63
2017-09-23T09:29:45.951Z,19.08
2017-09-23T09:32:13.479Z,20.43
2017-09-23T09:34:44.325Z,20.20
2017-09-23T09:37:11.839Z,20.70
2017-09-23T09:39:39.726Z,19.60
2017-09-23T09:42:08.155Z,20.90
2017-09-23T09:44:35.751Z,19.80
2017-09-23T09:47:04.978Z,18.85
2017-09-23T09:49:35.728Z,19.30
2017-09-23T09:52:03.844Z,21.37
2017-09-23T09:54:31.415Z,20.53
2017-09-23T09:57:00.135Z,23.75
2017-09-23T09:59:27.665Z,22.90
2017-09-23T10:01:55.211Z,20.17
2017-09-23T10:04:22.758Z,20.80
2017-09-23T10:06:50.269Z,28.05
2017-09-23T10:09:18.864Z,21.50
2017-09-23T10:11:47.227Z,22.83
2017-09-23T10:14:14.919Z,21.87
2017-09-23T10:16:44.006Z,18.12
2017-09-23T10:19:12.043Z,17.75
2017-09-23T10:21:39.644Z,19.10
2017-09-23T10:24:08.079Z,19.37
2017-09-23T10:26:35.596Z,21.20
2017-09-23T10:29:03.131Z,16.87
2017-09-23T10:31:30.689Z,19.98
2017-09-23T10:33:58.353Z,19.17
2017-09-23T10:36:26.378Z,15.77
2017-09-23T10:38:54.707Z,15.73
2017-09-23T10:41:22.295Z,18.43
2017-09-23T10:43:49.825Z,16.83
2017-09-23T10:46:17.384Z,17.53
2017-09-23T10:48:44.897Z,16.10
2017-09-23T10:51:13.192Z,20.05
2017-09-23T10:53:41.848Z,18.30
2017-09-23T10:56:10.386Z,17.50
2017-09-23T10:58:37.896Z,18.00
2017-09-23T11:01:05.610Z,16.55
2017-09-23T11:03:33.146Z,15.43
2017-09-23T11:06:00.852Z,15.63
2017-09-23T11:08:28.438Z,16.40
2017-09-23T11:10:55.975Z,15.63
2017-09-23T11:13:24.407Z,14.07
2017-09-23T11:15:51.976Z,16.53
2017-09-23T11:18:19.499Z,15.57
2017-09-23T11:20:47.017Z,13.40
2017-09-23T11:23:14.574Z,12.02
2017-09-23T11:25:42.291Z,10.95
2017-09-23T11:28:09.873Z,12.47
2017-09-23T11:30:37.535Z,12.63
2017-09-23T11:33:05.070Z,12.90
2017-09-23T11:35:33.078Z,13.80
2017-09-23T11:38:00.630Z,14.00
2017-09-23T11:40:28.571Z,13.90
2017-09-23T11:42:56.090Z,12.43
2017-09-23T11:45:24.128Z,14.40
2017-09-23T11:47:52.100Z,12.85
2017-09-23T11:50:19.984Z,13.50
2017-09-23T11:52:50.836Z,12.35
2017-09-23T11:55:18.478Z,14.30
2017-09-23T11:57:46.917Z,13.85
2017-09-23T12:00:14.528Z,13.68
2017-09-23T12:02:42.507Z,13.33
2017-09-23T12:05:10.016Z,14.25
2017-09-23T12:07:41.068Z,13.00
2017-09-23T12:10:08.680Z,12.67
2017-09-23T12:12:36.459Z,13.05
2017-09-23T12:15:04.331Z,13.15
2017-09-23T12:17:31.915Z,11.63
2017-09-23T12:19:59.909Z,12.00
2017-09-23T12:22:27.415Z,9.40
2017-09-23T12:24:56.679Z,9.37
2017-09-23T12:27:24.216Z,8.85
2017-09-23T12:29:51.905Z,9.73
2017-09-23T12:32:19.416Z,10.93
2017-09-23T12:34:46.943Z,9.90
2017-09-23T12:37:19.475Z,7.37
2017-09-23T12:39:46.984Z,6.57
2017-09-23T12:42:16.228Z,7.33
2017-09-23T12:44:44.288Z,6.62
2017-09-23T12:47:11.790Z,7.25
2017-09-23T12:49:40.243Z,6.50
2017-09-23T12:52:07.788Z,6.12
2017-09-23T12:54:35.286Z,6.80
2017-09-23T12:57:02.846Z,8.03
2017-09-23T12:59:30.370Z,5.47
2017-09-23T13:01:57.875Z,4.70
2017-09-23T13:04:25.786Z,5.73
2017-09-23T13:06:53.671Z,5.20
2017-09-23T13:09:28.614Z,5.83
2017-09-23T13:11:56.114Z,7.25
2017-09-23T13:14:23.618Z,6.45
2017-09-23T13:16:51.159Z,6.00
2017-09-23T13:19:19.087Z,6.72
2017-09-23T13:21:46.638Z,5.63
2017-09-23T13:24:14.191Z,6.50
2017-09-23T13:26:42.092Z,6.30
2017-09-23T13:29:09.635Z,4.87
2017-09-23T13:31:38.856Z,4.78
2017-09-23T13:34:06.412Z,6.43
2017-09-23T13:36:34.678Z,6.47
2017-09-23T13:39:03.089Z,6.00
2017-09-23T13:41:30.647Z,5.40
2017-09-23T13:43:58.699Z,4.50
2017-09-23T13:46:26.202Z,5.03
2017-09-23T13:48:53.751Z,6.63
2017-09-23T13:51:21.942Z,4.80
2017-09-23T13:53:49.712Z,4.40
2017-09-23T13:56:17.311Z,4.80
2017-09-23T13:58:44.831Z,6.30
2017-09-23T14:01:13.295Z,5.07
2017-09-23T14:03:41.395Z,4.95
2017-09-23T14:06:09.720Z,4.73
2017-09-23T14:08:37.272Z,4.27
2017-09-23T14:11:06.491Z,5.75
2017-09-23T14:13:34.044Z,5.33
2017-09-23T14:16:01.563Z,5.63
2017-09-23T14:18:29.419Z,4.90
2017-09-23T14:20:56.939Z,5.87
2017-09-23T14:23:25.610Z,6.75
2017-09-23T14:25:54.215Z,6.22
2017-09-23T14:28:22.046Z,6.00
2017-09-23T14:30:49.666Z,6.87
2017-09-23T14:33:17.389Z,5.60
2017-09-23T14:35:44.927Z,6.90
2017-09-23T14:38:12.467Z,5.53
2017-09-23T14:40:43.793Z,6.73
2017-09-23T14:43:11.373Z,5.77
2017-09-23T14:45:39.151Z,7.10
2017-09-23T14:48:06.662Z,6.93
2017-09-23T14:50:34.497Z,6.20
2017-09-23T14:53:02.003Z,6.80
2017-09-23T14:55:30.272Z,7.00
2017-09-23T14:57:57.975Z,6.25
2017-09-23T15:00:25.515Z,5.90
2017-09-23T15:02:53.789Z,6.60
2017-09-23T15:05:21.339Z,6.50
2017-09-23T15:07:49.307Z,5.80
2017-09-23T15:10:18.449Z,5.40
2017-09-23T15:12:45.955Z,5.87
2017-09-23T15:15:14.597Z,6.27
2017-09-23T15:17:42.203Z,5.10
2017-09-23T15:20:09.710Z,5.53
2017-09-23T15:22:37.476Z,6.30
2017-09-23T15:25:04.983Z,6.87
2017-09-23T15:27:32.542Z,7.40
2017-09-23T15:30:00.069Z,6.90
2017-09-23T15:32:27.584Z,7.70
2017-09-23T15:34:55.859Z,8.27
2017-09-23T15:37:24.308Z,9.47
2017-09-23T15:39:51.810Z,7.67
2017-09-23T15:42:23.280Z,7.05
2017-09-23T15:44:51.627Z,7.50
2017-09-23T15:47:19.178Z,8.10
2017-09-23T15:49:47.488Z,6.90
2017-09-23T15:52:16.147Z,6.40
2017-09-23T15:54:43.753Z,8.00
2017-09-23T15:57:11.353Z,6.18
2017-09-23T15:59:38.860Z,7.33
2017-09-23T16:02:06.403Z,7.18
2017-09-23T16:04:35.595Z,6.60
2017-09-23T16:07:03.101Z,7.30
2017-09-23T16:09:30.680Z,7.80
2017-09-23T16:12:05.891Z,6.50
2017-09-23T16:14:33.442Z,7.67
2017-09-23T16:17:01.057Z,7.25
2017-09-23T16:19:28.610Z,7.00
2017-09-23T16:21:56.732Z,7.73
2017-09-23T16:24:24.849Z,7.45
2017-09-23T16:26:55.624Z,7.22
2017-09-23T16:29:23.141Z,6.97
2017-09-23T16:31:50.724Z,6.80
2017-09-23T16:34:18.240Z,8.10
2017-09-23T16:36:45.762Z,7.53
2017-09-23T16:39:13.671Z,6.55
2017-09-23T16:41:41.535Z,7.35
2017-09-23T16:44:16.134Z,7.07
2017-09-23T16:46:43.678Z,7.33
2017-09-23T16:49:11.343Z,8.30
2017-09-23T16:51:39.004Z,7.32
2017-09-23T16:54:06.759Z,7.70
2017-09-23T16:56:38.004Z,7.47
2017-09-23T16:59:05.514Z,7.90
2017-09-23T17:01:34.003Z,8.80
2017-09-23T17:04:01.525Z,8.17
2017-09-23T17:06:29.042Z,8.73
2017-09-23T17:08:56.590Z,8.67
2017-09-23T17:11:24.894Z,7.80
2017-09-23T17:13:56.668Z,7.70
2017-09-23T17:16:24.415Z,8.80
2017-09-23T17:18:51.970Z,10.03
2017-09-23T17:21:19.478Z,9.00
2017-09-23T17:23:47.912Z,8.50
2017-09-23T17:26:15.468Z,8.70
2017-09-23T17:28:42.975Z,8.80
2017-09-23T17:31:11.027Z,8.90
2017-09-23T17:33:38.614Z,8.77
2017-09-23T17:36:06.483Z,9.40
2017-09-23T17:38:34.066Z,9.23
2017-09-23T17:41:01.782Z,8.15
2017-09-23T17:43:29.307Z,10.00
2017-09-23T17:45:56.851Z,9.40
2017-09-23T17:48:24.474Z,9.68
2017-09-23T17:50:52.206Z,9.07
2017-09-23T17:53:19.734Z,8.90
2017-09-23T17:55:48.041Z,9.90
2017-09-23T17:58:15.606Z,10.27
2017-09-23T18:00:43.159Z,10.33
2017-09-23T18:03:10.675Z,10.20
2017-09-23T18:05:38.227Z,10.50
2017-09-23T18:08:05.740Z,11.50
2017-09-23T18:10:34.273Z,9.87
2017-09-23T18:13:05.468Z,10.93
2017-09-23T18:15:33.499Z,10.85
2017-09-23T18:18:01.883Z,9.55
2017-09-23T18:20:29.586Z,9.75
2017-09-23T18:22:57.136Z,9.73
2017-09-23T18:25:24.643Z,10.93
2017-09-23T18:27:52.378Z,12.40
2017-09-23T18:30:19.968Z,9.07
2017-09-23T18:32:49.215Z,10.40
2017-09-23T18:35:16.879Z,10.00
2017-09-23T18:37:44.456Z,9.97
2017-09-23T18:40:12.150Z,10.00
2017-09-23T18:42:39.760Z,11.00
2017-09-23T18:45:08.825Z,10.77
2017-09-23T18:47:36.396Z,10.10
2017-09-23T18:50:04.059Z,10.55
2017-09-23T18:52:32.639Z,11.02
2017-09-23T18:55:00.960Z,11.10
2017-09-23T18:57:29.008Z,10.27
2017-09-23T18:59:58.270Z,10.28
2017-09-23T19:02:27.629Z,11.90
2017-09-23T19:04:55.597Z,11.40
2017-09-23T19:07:23.209Z,10.50
2017-09-23T19:09:50.719Z,10.73
2017-09-23T19:12:18.266Z,12.02
2017-09-23T19:14:46.703Z,11.57
2017-09-23T19:17:16.060Z,11.43
2017-09-23T19:19:43.634Z,12.73
2017-09-23T19:22:11.218Z,10.23
2017-09-23T19:24:38.842Z,10.13
2017-09-23T19:27:06.411Z,10.77
2017-09-23T19:29:34.022Z,12.73
2017-09-23T19:32:01.535Z,11.85
2017-09-23T19:34:29.094Z,12.60
2017-09-23T19:36:57.652Z,12.70
2017-09-23T19:39:25.180Z,15.00
2017-09-23T19:41:52.791Z,12.93
2017-09-23T19:44:20.667Z,14.50
2017-09-23T19:46:48.179Z,17.10
2017-09-23T19:49:15.723Z,14.80
2017-09-23T19:51:45.131Z,15.27
2017-09-23T19:54:12.678Z,13.77
2017-09-23T19:56:40.223Z,14.20
2017-09-23T19:59:09.476Z,15.60
2017-09-23T20:01:37.024Z,14.50
2017-09-23T20:04:04.578Z,14.10
2017-09-23T20:06:32.090Z,14.85
2017-09-23T20:08:59.619Z,17.23
2017-09-23T20:11:28.098Z,15.63
2017-09-23T20:13:55.618Z,14.40
2017-09-23T20:16:23.196Z,15.30
2017-09-23T20:18:50.759Z,11.70
2017-09-23T20:21:18.275Z,14.40
2017-09-23T20:23:45.823Z,13.43
2017-09-23T20:26:13.348Z,13.80
2017-09-23T20:28:41.663Z,14.27
2017-09-23T20:31:09.187Z,14.00
2017-09-23T20:33:36.699Z,16.00
2017-09-23T20:36:05.016Z,15.33
2017-09-23T20:38:32.532Z,15.65
2017-09-23T20:41:01.747Z,14.85
2017-09-23T20:43:29.302Z,12.90
2017-09-23T20:45:57.238Z,14.47
2017-09-23T20:48:26.266Z,13.38
2017-09-23T20:50:53.820Z,14.07
2017-09-23T20:53:21.331Z,13.83
2017-09-23T20:55:48.892Z,16.37
2017-09-23T20:58:16.461Z,18.27
2017-09-23T21:00:44.020Z,20.25
2017-09-23T21:03:12.401Z,18.67
2017-09-23T21:05:40.271Z,20.50
2017-09-23T21:08:07.859Z,19.10
2017-09-23T21:10:36.130Z,18.70
2017-09-23T21:13:04.843Z,18.75
2017-09-23T21:15:33.209Z,16.73
2017-09-23T21:18:04.415Z,20.20
2017-09-23T21:20:31.959Z,19.70
2017-09-23T21:22:59.462Z,18.83
2017-09-23T21:25:27.780Z,17.87
2017-09-23T21:27:55.291Z,19.30
2017-09-23T21:30:23.472Z,19.77
2017-09-23T21:32:54.942Z,19.20
2017-09-23T21:35:22.505Z,19.42
2017-09-23T21:37:50.035Z,20.10
2017-09-23T21:40:19.243Z,18.10
2017-09-23T21:42:46.798Z,20.20
2017-09-23T21:45:14.337Z,20.83
2017-09-23T21:47:41.855Z,18.20
2017-09-23T21:50:09.419Z,17.23
2017-09-23T21:52:38.619Z,19.00
2017-09-23T21:55:06.175Z,19.33
2017-09-23T21:57:34.106Z,18.60
2017-09-23T22:00:02.476Z,19.40
2017-09-23T22:02:33.671Z,17.83
2017-09-23T22:05:01.218Z,17.83
2017-09-23T22:07:28.851Z,20.07
2017-09-23T22:09:56.372Z,17.17
2017-09-23T22:12:24.071Z,17.47
2017-09-23T22:14:52.745Z,18.35
2017-09-23T22:17:20.544Z,19.25
2017-09-23T22:19:48.088Z,17.57
2017-09-23T22:22:16.628Z,17.47
2017-09-23T22:24:44.187Z,16.83
2017-09-23T22:27:11.907Z,17.87
2017-09-23T22:29:39.419Z,17.00
2017-09-23T22:32:07.703Z,15.70
2017-09-23T22:34:40.112Z,17.20
2017-09-23T22:37:07.694Z,19.57
2017-09-23T22:39:36.120Z,18.20
2017-09-23T22:42:03.632Z,18.45
2017-09-23T22:44:31.166Z,17.83
2017-09-23T22:46:58.699Z,16.33
2017-09-23T22:49:26.256Z,18.90
2017-09-23T22:51:53.816Z,17.33
2017-09-23T22:54:21.326Z,16.23
2017-09-23T22:56:49.370Z,17.83
2017-09-23T22:59:16.920Z,16.33
2017-09-23T23:01:44.651Z,18.36
2017-09-23T23:04:12.975Z,17.00
2017-09-23T23:06:40.479Z,16.50
2017-09-23T23:09:07.987Z,17.90
2017-09-23T23:11:35.651Z,20.92
2017-09-23T23:14:03.484Z,19.25
2017-09-23T23:16:31.770Z,20.55
2017-09-23T23:19:03.051Z,21.00
2017-09-23T23:21:30.589Z,19.53
2017-09-23T23:23:58.298Z,20.42
2017-09-23T23:26:25.847Z,19.80
2017-09-23T23:28:53.351Z,19.03
2017-09-23T23:31:20.902Z,18.50
2017-09-23T23:33:49.804Z,17.73
2017-09-23T23:36:18.153Z,18.60
2017-09-23T23:38:45.969Z,19.00
2017-09-23T23:41:13.479Z,17.67
2017-09-23T23:43:41.016Z,19.87
2017-09-23T23:46:09.454Z,19.23
2017-09-23T23:48:36.954Z,19.67
2017-09-23T23:51:04.487Z,18.45
2017-09-23T23:53:32.049Z,18.83
2017-09-23T23:55:59.721Z,17.87
2017-09-23T23:58:27.278Z,17.10
